Texarkana Regional Webb Field
KTXK : rendu visible

Aérodrome :











RETROUVEZ-NOUS SUR...

 
LOGIN :

S'inscrire | Disclaimer

   EN    FR    IT 

 









Légende :    VFR   VFR Marginal   IFR   IFR Intensif   IFR Très Intensif
Visi : 
Plafond : 
>= 8 km
>= 3000ft
5 à 8 km
1000 à 3000 ft
1500m à 5 km
500 à 1000 ft
800 à 1500m
200 à 500 ft
< 800m
< 200 ft
Symboles :   Orages  Brouillard  Fortes neiges  Fortes précipitations  Vent > 20 kt






- Altitude de l'aérodrome : 390 ft
- Code IATA : TXK


KTXK - Texarkana Regional Webb Field

DERNIER METAR :
  • 220713Z AUTO 20011KT 10SM BKN014 OVC065 19/17 A2994 RMK AO2 RAB0658E09 P0000 T01940172

METARs EXPIRÉS :
  • 220653Z AUTO 19011KT 10SM BKN060 OVC090 19/17 A2994 RMK AO2 RAE26 SLP137 P0000 T01940172
  • 220553Z AUTO 18011KT 9SM -RA FEW039 SCT046 OVC055 19/17 A2995 RMK AO2 RAB45 SLP139 P0000 60001 T01940172 10194 20172 401940128 58004
  • 220453Z AUTO 19009KT 10SM BKN060 OVC120 19/17 A2995 RMK AO2 SLP140 T01940172

TAF KTXK
Valide du 22 à 06h jusqu'au 23 à 06h UTC


220554Z 2206/2306 14005KT 6SM -SHRA SCT060 OVC080
FM220700 19012KT P6SM -SHRA OVC050
FM220900 21008KT 6SM -RA BR OVC010
FM221200 26004KT 2SM -TSRA BR OVC004CB
FM221500 35006KT 1/2SM -RA FG OVC004
FM221800 02006KT 4SM -RA BR OVC007
FM222100 VRB06KT 2SM BR OVC007
FM230300 35005KT 4SM BR OVC004



MET'MAP, la Météo Aéronautique d'un coup d'oeil ! - Copyright ORBIFLY Décembre 2007 - Disclaimer

ORBIFLY MET'MAP TEAM :

Programmation & Développement : Alexandra Zaïnal
Conception & Développement : Baudouin d'Aumeries
Co-Programmation & Développement : Marc-Olivier Méhu
Soutien technique & logistique : Manuel Goepfert

Contact : metmap@orbifly.com




SOURCES & CREDITS :

   NOAA       Earth
Advisory